Time;durP1;ratioP1;P1;durP2;ratioP2;P2;SDS_P1;SDS_P2;PMS_P1;PMS_P2;Temp;Humidity;BMP_temperature;BMP_pressure;BME280_temperature;BME280_humidity;BME280_pressure;Samples;Min_cycle;Max_cycle;Signal;HPM_P1;HPM_P2
2022/09/26 00:01:11;;;;;;;0.00;0.00;;;;;;;16.30;74.37;100055.31;7352442;19;20991;-58
2022/09/26 00:03:37;;;;;;;0.05;0.05;;;;;;;16.27;74.91;100043.16;7352368;19;20014;-58
2022/09/26 00:06:04;;;;;;;0.10;0.10;;;;;;;16.28;74.21;100034.31;7350477;19;25854;-58
2022/09/26 00:08:30;;;;;;;0.00;0.00;;;;;;;16.15;74.48;100003.50;7351602;19;20095;-56
2022/09/26 00:10:57;;;;;;;0.00;0.00;;;;;;;16.30;74.00;100023.69;7352723;19;20010;-58
2022/09/26 00:13:25;;;;;;;0.00;0.00;;;;;;;16.28;74.34;100017.66;7354588;19;20014;-58
2022/09/26 00:15:50;;;;;;;0.05;0.05;;;;;;;16.27;74.02;100030.00;7358696;19;20031;-58
2022/09/26 00:18:15;;;;;;;0.00;0.00;;;;;;;16.26;73.73;100041.44;7356536;19;20098;-57
2022/09/26 00:20:41;;;;;;;0.00;0.00;;;;;;;16.24;73.58;100043.34;7351824;19;20089;-58
2022/09/26 00:23:06;;;;;;;0.00;0.00;;;;;;;16.14;74.14;100036.03;7362136;19;20616;-57
2022/09/26 00:25:32;;;;;;;0.03;0.03;;;;;;;16.19;73.71;100055.06;7364545;19;20022;-56
2022/09/26 00:27:57;;;;;;;0.00;0.00;;;;;;;16.17;73.76;100046.38;7362000;19;20010;-55
2022/09/26 00:30:22;;;;;;;0.00;0.00;;;;;;;16.15;73.57;100070.19;7365275;19;20022;-59
2022/09/26 00:32:48;;;;;;;0.00;0.00;;;;;;;16.13;73.35;100084.38;7365021;19;20077;-59
2022/09/26 00:35:13;;;;;;;0.00;0.00;;;;;;;16.09;73.63;100081.91;7363506;19;21819;-58
2022/09/26 00:37:39;;;;;;;0.00;0.00;;;;;;;16.07;73.17;100096.13;7361495;19;20007;-58
2022/09/26 00:40:05;;;;;;;0.10;0.10;;;;;;;16.04;72.78;100088.38;7363490;19;20081;-57
2022/09/26 00:42:31;;;;;;;0.00;0.00;;;;;;;15.92;72.67;100074.09;7363606;19;20007;-58
2022/09/26 00:44:56;;;;;;;0.00;0.00;;;;;;;15.92;72.90;100078.53;7365374;19;20038;-58
2022/09/26 00:47:40;;;;;;;0.00;0.00;;;;;;;15.92;72.87;100089.91;7361789;19;20014;-58
2022/09/26 00:50:09;;;;;;;0.00;0.00;;;;;;;15.92;73.00;100089.06;7364030;19;20017;-58
2022/09/26 00:52:44;;;;;;;0.10;0.10;;;;;;;15.90;72.62;100078.59;7363234;19;20010;-58
2022/09/26 00:55:12;;;;;;;0.00;0.00;;;;;;;15.87;72.95;100070.88;7363204;19;20045;-58
2022/09/26 00:57:44;;;;;;;0.03;0.03;;;;;;;15.87;72.55;100059.50;7362087;19;20047;-57
2022/09/26 01:00:13;;;;;;;0.05;0.05;;;;;;;15.81;72.71;100048.38;7362292;19;20010;-58
2022/09/26 01:02:39;;;;;;;0.10;0.10;;;;;;;15.82;71.91;100055.31;7363357;19;20022;-57
2022/09/26 01:05:06;;;;;;;0.00;0.00;;;;;;;15.81;72.35;100052.75;7364571;19;20011;-58
2022/09/26 01:07:33;;;;;;;0.10;0.10;;;;;;;15.79;72.75;100063.38;7362584;19;20021;-57
2022/09/26 01:10:01;;;;;;;0.10;0.10;;;;;;;15.72;72.48;100051.50;7363183;19;20022;-58
2022/09/26 01:12:27;;;;;;;0.00;0.00;;;;;;;15.73;72.63;100066.34;7361027;19;20014;-57
2022/09/26 01:14:53;;;;;;;0.10;0.10;;;;;;;15.70;72.25;100069.13;7363936;19;20018;-58
2022/09/26 01:17:21;;;;;;;0.00;0.00;;;;;;;15.66;72.64;100070.25;7363674;19;20019;-58
2022/09/26 01:20:11;;;;;;;0.00;0.00;;;;;;;15.66;71.71;100077.28;7360671;19;20596;-58
2022/09/26 01:22:55;;;;;;;0.00;0.00;;;;;;;15.63;71.39;100070.41;7364482;19;20020;-58
2022/09/26 01:25:35;;;;;;;0.00;0.00;;;;;;;15.62;71.43;100065.22;7362382;19;20701;-58
2022/09/26 01:28:27;;;;;;;0.00;0.00;;;;;;;15.58;71.16;100060.09;7362562;19;20029;-58
2022/09/26 01:31:15;;;;;;;0.00;0.00;;;;;;;15.54;71.12;100061.19;7262426;19;2004516;-56
2022/09/26 01:33:56;;;;;;;0.00;0.00;;;;;;;15.56;71.25;100069.00;7363256;19;20025;-59
2022/09/26 01:36:37;;;;;;;0.00;0.00;;;;;;;15.52;71.10;100072.75;7362306;19;20090;-59
2022/09/26 01:39:17;;;;;;;0.10;0.10;;;;;;;15.55;70.45;100085.72;7361866;19;20467;-59
2022/09/26 01:41:48;;;;;;;0.00;0.00;;;;;;;15.52;70.14;100081.47;7361050;19;20021;-58
2022/09/26 01:44:47;;;;;;;0.00;0.00;;;;;;;15.45;70.20;100064.28;7365012;19;20014;-59
2022/09/26 01:47:17;;;;;;;0.03;0.03;;;;;;;15.47;70.05;100056.34;7264425;19;2004228;-57
2022/09/26 01:49:55;;;;;;;0.00;0.00;;;;;;;15.45;69.82;100058.19;7363716;19;20385;-58
2022/09/26 01:52:45;;;;;;;0.00;0.00;;;;;;;15.43;70.05;100049.53;7365490;19;20014;-58
2022/09/26 01:55:15;;;;;;;0.00;0.00;;;;;;;15.41;69.76;100046.13;7365150;19;20010;-59
2022/09/26 01:57:50;;;;;;;0.10;0.10;;;;;;;15.38;69.85;100046.31;7358321;19;20014;-58
2022/09/26 02:00:17;;;;;;;0.00;0.00;;;;;;;15.30;70.21;100049.31;7359358;19;20077;-59
2022/09/26 02:02:46;;;;;;;0.00;0.00;;;;;;;15.23;69.75;100054.06;7363397;19;20014;-59
2022/09/26 02:05:31;;;;;;;0.00;0.00;;;;;;;15.25;69.74;100057.44;7362410;19;20470;-59
2022/09/26 02:08:02;;;;;;;0.00;0.00;;;;;;;15.19;69.93;100047.25;7362418;19;20082;-59
2022/09/26 02:10:34;;;;;;;0.00;0.00;;;;;;;15.14;70.13;100046.66;7360326;19;21166;-58
2022/09/26 02:13:14;;;;;;;0.00;0.00;;;;;;;15.13;69.99;100044.09;7359687;19;20010;-58
2022/09/26 02:15:40;;;;;;;0.00;0.00;;;;;;;15.04;70.05;100048.91;7360766;19;20035;-57
2022/09/26 02:18:19;;;;;;;0.00;0.00;;;;;;;15.03;69.86;100051.63;7360663;19;20035;-58
2022/09/26 02:21:08;;;;;;;0.00;0.00;;;;;;;14.96;70.13;100051.09;7361439;19;20441;-59
2022/09/26 02:23:34;;;;;;;0.00;0.00;;;;;;;14.96;70.46;100060.75;7362020;19;20010;-58
2022/09/26 02:25:59;;;;;;;0.00;0.00;;;;;;;14.94;70.41;100055.56;7363495;19;22150;-59
2022/09/26 02:28:25;;;;;;;0.10;0.10;;;;;;;14.93;70.75;100045.13;7358045;19;20011;-57
2022/09/26 02:30:53;;;;;;;0.00;0.00;;;;;;;14.95;70.27;100053.78;7362041;19;20010;-58
2022/09/26 02:33:18;;;;;;;0.10;0.10;;;;;;;14.92;69.59;100060.06;7359687;19;20017;-58
2022/09/26 02:35:53;;;;;;;0.00;0.00;;;;;;;14.89;69.82;100054.09;7361274;19;20576;-58
2022/09/26 02:38:19;;;;;;;0.00;0.00;;;;;;;14.93;70.43;100060.91;7357350;19;20025;-59
2022/09/26 02:41:12;;;;;;;0.10;0.10;;;;;;;14.92;70.53;100065.31;7362975;19;22154;-58
2022/09/26 02:44:00;;;;;;;0.05;0.05;;;;;;;14.96;69.84;100079.16;7257399;19;2004611;-58
2022/09/26 02:46:38;;;;;;;0.00;0.00;;;;;;;14.95;69.67;100082.69;7358858;19;20010;-58
2022/09/26 02:49:35;;;;;;;0.00;0.00;;;;;;;14.94;69.45;100067.84;7362007;19;20010;-58
2022/09/26 02:52:08;;;;;;;0.08;0.08;;;;;;;14.82;69.26;100048.31;7255365;19;2004342;-57
2022/09/26 02:54:57;;;;;;;0.00;0.00;;;;;;;14.88;69.09;100063.75;7360760;19;20006;-59
2022/09/26 02:57:45;;;;;;;0.00;0.00;;;;;;;14.84;68.64;100061.38;7360697;19;20010;-58
2022/09/26 03:00:52;;;;;;;0.00;0.00;;;;;;;14.83;69.00;100060.50;7358239;19;20020;-59
2022/09/26 03:03:25;;;;;;;0.00;0.00;;;;;;;14.79;69.09;100065.06;7259686;19;2004467;-58
2022/09/26 03:05:55;;;;;;;0.00;0.00;;;;;;;14.78;68.95;100065.16;7351884;19;20014;-59
2022/09/26 03:08:29;;;;;;;0.03;0.03;;;;;;;14.78;68.77;100054.66;7361606;19;20006;-58
2022/09/26 03:10:58;;;;;;;0.00;0.00;;;;;;;14.73;68.77;100051.41;7358815;19;20035;-58
2022/09/26 03:13:26;;;;;;;0.00;0.00;;;;;;;14.76;67.98;100049.47;7361243;19;20018;-58
2022/09/26 03:15:55;;;;;;;0.00;0.00;;;;;;;14.76;68.02;100049.47;7358779;19;20034;-56
2022/09/26 03:18:25;;;;;;;0.00;0.00;;;;;;;14.76;67.87;100054.72;7354325;19;20023;-59
2022/09/26 03:20:53;;;;;;;0.05;0.05;;;;;;;14.65;67.80;100030.78;7362508;19;20041;-58
2022/09/26 03:23:23;;;;;;;0.00;0.00;;;;;;;14.75;67.67;100052.16;7357101;19;20021;-58
2022/09/26 03:26:09;;;;;;;0.00;0.00;;;;;;;14.73;67.63;100030.38;7362703;19;20043;-58
2022/09/26 03:28:35;;;;;;;0.00;0.00;;;;;;;14.70;67.07;100023.50;7362177;19;20013;-59
2022/09/26 03:31:00;;;;;;;0.00;0.00;;;;;;;14.73;66.53;100033.00;7361831;19;22341;-59
2022/09/26 03:33:26;;;;;;;0.00;0.00;;;;;;;14.73;66.92;100033.84;7362662;19;20017;-58
2022/09/26 03:35:51;;;;;;;0.00;0.00;;;;;;;14.71;66.64;100030.47;7362241;19;20094;-59
2022/09/26 03:38:17;;;;;;;0.00;0.00;;;;;;;14.69;66.51;100032.28;7361961;19;20411;-59
2022/09/26 03:40:43;;;;;;;0.00;0.00;;;;;;;14.67;65.87;100030.69;7359565;19;20007;-58
2022/09/26 03:43:09;;;;;;;0.00;0.00;;;;;;;14.65;66.22;100020.25;7360128;19;20023;-58
2022/09/26 03:45:36;;;;;;;0.00;0.00;;;;;;;14.65;65.53;100024.63;7360029;19;20034;-59
2022/09/26 03:48:02;;;;;;;0.00;0.00;;;;;;;14.58;66.19;100013.59;7364114;19;20014;-58
2022/09/26 03:50:27;;;;;;;0.00;0.00;;;;;;;14.58;64.99;100016.22;7368128;19;20010;-56
2022/09/26 03:52:53;;;;;;;0.00;0.00;;;;;;;14.43;65.63;99993.31;7363607;19;20006;-59
2022/09/26 03:55:18;;;;;;;0.08;0.08;;;;;;;14.42;65.21;99996.88;7369148;19;21909;-58
2022/09/26 03:57:43;;;;;;;0.00;0.00;;;;;;;14.46;65.64;100015.03;7364706;19;20030;-57
2022/09/26 04:00:09;;;;;;;0.00;0.00;;;;;;;14.42;65.29;100023.13;7367013;19;20007;-57
2022/09/26 04:02:35;;;;;;;0.00;0.00;;;;;;;14.40;65.24;100027.63;7366688;19;20002;-59
2022/09/26 04:05:00;;;;;;;0.00;0.00;;;;;;;14.36;65.79;100023.44;7366415;19;20654;-57
2022/09/26 04:07:26;;;;;;;0.00;0.00;;;;;;;14.20;65.83;100000.56;7366591;19;20015;-57
2022/09/26 04:09:52;;;;;;;0.00;0.00;;;;;;;14.31;65.13;100014.94;7366601;19;20013;-59
2022/09/26 04:12:18;;;;;;;0.00;0.00;;;;;;;14.31;66.39;100014.94;7366352;19;20010;-58
2022/09/26 04:14:44;;;;;;;0.00;0.00;;;;;;;14.25;66.31;100016.94;7367547;19;20006;-58
2022/09/26 04:17:10;;;;;;;0.00;0.00;;;;;;;14.23;66.00;100026.66;7365821;19;20593;-58
2022/09/26 04:19:35;;;;;;;0.00;0.00;;;;;;;14.17;65.30;100034.84;7367971;19;20706;-59
2022/09/26 04:22:01;;;;;;;0.00;0.00;;;;;;;14.17;65.76;100045.34;7366153;19;20006;-58
2022/09/26 04:24:26;;;;;;;0.00;0.00;;;;;;;14.14;66.27;100049.88;7365981;19;20014;-57
2022/09/26 04:26:52;;;;;;;0.00;0.00;;;;;;;14.10;65.35;100054.44;7366940;19;20025;-58
2022/09/26 04:29:18;;;;;;;0.10;0.10;;;;;;;14.06;65.12;100052.88;7367908;19;20006;-58
2022/09/26 04:31:44;;;;;;;0.00;0.00;;;;;;;13.91;65.39;100027.34;7366417;19;20021;-59
2022/09/26 04:34:10;;;;;;;0.00;0.00;;;;;;;13.98;65.04;100044.50;7363192;19;20031;-58
2022/09/26 04:36:36;;;;;;;0.00;0.00;;;;;;;13.82;65.36;100022.53;7367359;19;20082;-59
2022/09/26 04:39:03;;;;;;;0.00;0.00;;;;;;;13.88;65.28;100037.97;7363048;19;20030;-59
2022/09/26 04:41:29;;;;;;;0.00;0.00;;;;;;;13.87;65.56;100041.53;7361735;19;20726;-56
2022/09/26 04:43:55;;;;;;;0.00;0.00;;;;;;;13.78;65.01;100024.44;7365313;19;21480;-58
2022/09/26 04:46:23;;;;;;;0.00;0.00;;;;;;;13.81;65.24;100041.84;7367526;19;20366;-57
2022/09/26 04:48:50;;;;;;;0.10;0.10;;;;;;;13.75;65.20;100038.56;7365635;19;20022;-58
2022/09/26 04:51:17;;;;;;;0.00;0.00;;;;;;;13.72;65.45;100030.81;7367138;19;20014;-58
2022/09/26 04:53:42;;;;;;;0.00;0.00;;;;;;;13.69;64.76;100030.13;7365792;19;20014;-58
2022/09/26 04:56:10;;;;;;;0.00;0.00;;;;;;;13.65;64.43;100029.41;7366842;19;20047;-57
2022/09/26 04:58:37;;;;;;;;;;;;;;;13.65;65.54;100039.91;7366550;19;20034;-58
2022/09/26 05:01:09;;;;;;;0.00;0.00;;;;;;;13.46;64.65;100018.06;7364617;19;19939;-56
2022/09/26 05:03:37;;;;;;;0.00;0.00;;;;;;;13.54;64.39;100047.44;7368140;19;20014;-57
2022/09/26 05:06:07;;;;;;;0.00;0.00;;;;;;;13.51;64.26;100044.94;7363763;19;20034;-58
2022/09/26 05:08:46;;;;;;;0.00;0.00;;;;;;;13.45;64.78;100042.59;7365152;19;20027;-56
2022/09/26 05:11:12;;;;;;;0.00;0.00;;;;;;;13.41;65.16;100049.75;7366145;19;20340;-59
2022/09/26 05:13:38;;;;;;;0.00;0.00;;;;;;;13.38;65.38;100059.50;7365482;19;20067;-57
2022/09/26 05:16:07;;;;;;;0.00;0.00;;;;;;;13.35;64.95;100067.53;7365989;19;20015;-57
2022/09/26 05:18:33;;;;;;;0.00;0.00;;;;;;;13.33;64.85;100071.97;7365013;19;20965;-58
2022/09/26 05:21:00;;;;;;;0.00;0.00;;;;;;;13.30;65.10;100082.63;7364301;19;20759;-58
2022/09/26 05:26:25;;;;;;;0.00;0.00;;;;;;;13.29;65.74;100075.66;7364129;19;20022;-59
2022/09/26 05:29:00;;;;;;;0.10;0.10;;;;;;;13.27;64.85;100080.09;7364015;19;21160;-57
2022/09/26 05:31:27;;;;;;;0.00;0.00;;;;;;;13.26;64.95;100086.28;7365800;19;20007;-57
2022/09/26 05:33:55;;;;;;;0.00;0.00;;;;;;;13.23;65.40;100082.88;7363260;19;20014;-57
2022/09/26 05:36:20;;;;;;;0.00;0.00;;;;;;;13.29;65.76;100099.28;7366238;19;20015;-58
2022/09/26 05:38:46;;;;;;;0.00;0.00;;;;;;;13.18;64.41;100076.97;7363373;19;20042;-56
2022/09/26 05:41:13;;;;;;;0.00;0.00;;;;;;;13.33;65.50;100099.06;7360615;19;20017;-58
2022/09/26 05:43:38;;;;;;;0.05;0.05;;;;;;;13.32;65.16;100099.97;7364502;19;20018;-58
2022/09/26 05:46:06;;;;;;;0.00;0.00;;;;;;;13.29;65.18;100086.16;7365457;19;20094;-59
2022/09/26 05:48:34;;;;;;;0.00;0.00;;;;;;;13.37;64.58;100110.25;7364199;19;20021;-58
2022/09/26 05:51:11;;;;;;;0.00;0.00;;;;;;;13.42;65.18;100106.50;7363685;19;20018;-58
2022/09/26 05:53:41;;;;;;;0.00;0.00;;;;;;;13.41;65.28;100101.34;7365236;19;20010;-59
2022/09/26 05:56:07;;;;;;;0.00;0.00;;;;;;;13.43;64.82;100104.75;7364330;19;20058;-57
2022/09/26 05:58:35;;;;;;;0.00;0.00;;;;;;;13.46;65.40;100112.47;7356021;19;20031;-58
2022/09/26 06:01:09;;;;;;;0.00;0.00;;;;;;;13.48;65.25;100118.50;7362139;19;20747;-57
2022/09/26 06:03:35;;;;;;;0.00;0.00;;;;;;;13.48;65.33;100121.13;7359510;19;20043;-59
2022/09/26 06:06:06;;;;;;;0.00;0.00;;;;;;;13.45;64.85;100109.00;7362175;19;20242;-59
2022/09/26 06:08:33;;;;;;;0.00;0.00;;;;;;;13.50;65.44;100114.06;7361733;19;20518;-58
2022/09/26 06:11:03;;;;;;;0.00;0.00;;;;;;;13.52;64.73;100113.97;7359522;19;20039;-57
2022/09/26 06:13:32;;;;;;;0.00;0.00;;;;;;;13.50;64.70;100095.69;7360037;19;20633;-56
2022/09/26 06:16:05;;;;;;;0.00;0.00;;;;;;;13.52;64.52;100122.69;7362083;19;20031;-59
2022/09/26 06:18:35;;;;;;;0.10;0.10;;;;;;;13.52;64.30;100125.31;7361641;19;20010;-58
2022/09/26 06:21:04;;;;;;;0.00;0.00;;;;;;;13.48;64.15;100140.38;7360108;19;20010;-58
2022/09/26 06:23:30;;;;;;;0.00;0.00;;;;;;;13.43;64.28;100141.47;7360299;19;20011;-58
2022/09/26 06:25:57;;;;;;;0.00;0.00;;;;;;;13.39;64.01;100138.13;7360271;19;20017;-59
2022/09/26 06:28:25;;;;;;;0.00;0.00;;;;;;;13.36;63.78;100140.03;7361434;19;20423;-57
2022/09/26 06:30:50;;;;;;;0.00;0.00;;;;;;;13.35;64.17;100123.44;7360823;19;20018;-59
2022/09/26 06:33:16;;;;;;;0.00;0.00;;;;;;;13.32;64.13;100120.94;7360933;19;20787;-59
2022/09/26 06:35:41;;;;;;;0.00;0.00;;;;;;;13.29;64.43;100105.38;7360036;19;20048;-59
2022/09/26 06:38:07;;;;;;;0.10;0.10;;;;;;;13.26;64.52;100105.47;7362430;19;20093;-59
2022/09/26 06:40:32;;;;;;;0.00;0.00;;;;;;;13.27;64.30;100114.19;7361309;19;20031;-57
2022/09/26 06:42:58;;;;;;;0.00;0.00;;;;;;;13.26;64.73;100112.50;7354404;19;20478;-58
2022/09/26 06:45:25;;;;;;;0.00;0.00;;;;;;;13.22;64.33;100110.00;7357673;19;20067;-57
2022/09/26 06:47:51;;;;;;;0.00;0.00;;;;;;;13.22;64.68;100111.78;7362817;19;20034;-58
2022/09/26 06:50:16;;;;;;;0.00;0.00;;;;;;;13.21;64.68;100108.31;7353497;19;20519;-59
2022/09/26 06:52:43;;;;;;;0.00;0.00;;;;;;;13.20;64.50;100113.59;7361940;19;20355;-59
2022/09/26 06:55:09;;;;;;;0.00;0.00;;;;;;;13.20;65.02;100129.31;7360424;19;20010;-58
2022/09/26 06:57:41;;;;;;;0.00;0.00;;;;;;;13.20;64.56;100127.53;7343694;19;20010;-55
2022/09/26 07:00:09;;;;;;;0.00;0.00;;;;;;;13.19;64.61;100136.34;7355402;19;20015;-59
2022/09/26 07:02:34;;;;;;;0.00;0.00;;;;;;;13.17;64.89;100147.78;7357175;19;20023;-57
2022/09/26 07:05:01;;;;;;;0.08;0.08;;;;;;;13.21;64.48;100158.13;7359847;19;20011;-58
2022/09/26 07:07:27;;;;;;;0.00;0.00;;;;;;;13.23;64.32;100172.03;7362327;19;20070;-59
2022/09/26 07:09:53;;;;;;;0.00;0.00;;;;;;;13.22;64.56;100175.53;7355733;19;20031;-59
2022/09/26 07:12:18;;;;;;;0.00;0.00;;;;;;;13.27;64.64;100192.84;7363451;19;20018;-58
2022/09/26 07:14:43;;;;;;;0.00;0.00;;;;;;;13.20;64.57;100174.75;7362986;19;20517;-57
2022/09/26 07:17:15;;;;;;;0.00;0.00;;;;;;;13.36;64.66;100192.47;7357152;19;20006;-58
2022/09/26 07:19:41;;;;;;;0.00;0.00;;;;;;;13.32;64.41;100191.75;7362343;19;20764;-59
2022/09/26 07:22:07;;;;;;;0.00;0.00;;;;;;;13.40;64.13;100204.56;7361850;19;20097;-57
2022/09/26 07:24:33;;;;;;;0.00;0.00;;;;;;;13.38;64.52;100198.50;7356442;19;20007;-59
2022/09/26 07:27:00;;;;;;;0.00;0.00;;;;;;;13.45;64.09;100207.84;7361131;19;20018;-59
2022/09/26 07:29:26;;;;;;;0.00;0.00;;;;;;;13.41;64.20;100185.28;7358623;19;20016;-58
2022/09/26 07:31:52;;;;;;;0.00;0.00;;;;;;;13.52;64.09;100204.03;7363963;19;20018;-57
2022/09/26 07:34:18;;;;;;;0.00;0.00;;;;;;;13.56;63.79;100200.34;7360921;19;20047;-59
2022/09/26 07:36:44;;;;;;;0.00;0.00;;;;;;;13.58;64.07;100203.75;7362432;19;20027;-58
2022/09/26 07:39:10;;;;;;;0.00;0.00;;;;;;;13.61;63.71;100203.63;7358048;19;20006;-59
2022/09/26 07:41:35;;;;;;;0.00;0.00;;;;;;;13.64;63.18;100206.13;7355935;19;20490;-58
2022/09/26 07:44:00;;;;;;;0.00;0.00;;;;;;;13.68;63.19;100199.81;7359542;19;20007;-58
2022/09/26 07:51:55;;;;;;;0.00;0.00;;;;;;;13.67;62.76;100198.09;7355538;19;20009;-58
2022/09/26 07:54:22;;;;;;;0.00;0.00;;;;;;;13.81;62.87;100215.03;7358872;19;20462;-57
2022/09/26 07:56:48;;;;;;;0.00;0.00;;;;;;;13.81;62.95;100220.28;7358978;19;20011;-57
2022/09/26 07:59:14;;;;;;;0.00;0.00;;;;;;;13.82;63.41;100217.59;7359000;19;20429;-58
2022/09/26 08:01:39;;;;;;;0.00;0.00;;;;;;;13.83;63.00;100224.53;7356605;19;20013;-58
2022/09/26 08:04:05;;;;;;;0.00;0.00;;;;;;;13.71;62.90;100204.94;7357106;19;20018;-59
2022/09/26 08:06:33;;;;;;;0.00;0.00;;;;;;;13.86;62.89;100234.06;7358500;19;20010;-59
2022/09/26 08:08:59;;;;;;;0.00;0.00;;;;;;;13.85;63.09;100227.13;7358657;19;20042;-58
2022/09/26 08:11:26;;;;;;;0.00;0.00;;;;;;;13.87;62.98;100246.25;7355230;19;20003;-58
2022/09/26 08:13:51;;;;;;;0.00;0.00;;;;;;;13.87;62.63;100227.88;7359910;19;20011;-59
2022/09/26 08:16:22;;;;;;;0.00;0.00;;;;;;;13.94;62.54;100231.97;7358628;19;22367;-58
2022/09/26 08:18:50;;;;;;;0.00;0.00;;;;;;;14.06;62.93;100236.66;7359450;19;20014;-59
2022/09/26 08:21:16;;;;;;;0.08;0.08;;;;;;;14.16;62.92;100243.22;7358179;19;20011;-59
2022/09/26 08:23:43;;;;;;;0.00;0.00;;;;;;;14.28;62.69;100234.75;7359505;19;20025;-56
2022/09/26 08:26:08;;;;;;;0.00;0.00;;;;;;;14.35;63.15;100221.38;7361091;19;20011;-58
2022/09/26 08:28:36;;;;;;;0.05;0.05;;;;;;;14.58;62.58;100244.81;7362259;19;20021;-59
2022/09/26 08:31:03;;;;;;;0.10;0.10;;;;;;;14.77;62.24;100235.16;7362854;19;20040;-59
2022/09/26 08:33:29;;;;;;;;;;;;;;;15.03;64.04;100238.31;7360919;19;20015;-58
2022/09/26 08:35:55;;;;;;;0.00;0.00;;;;;;;15.15;61.65;100242.97;7369827;19;19925;-58
2022/09/26 08:38:21;;;;;;;0.00;0.00;;;;;;;15.32;61.79;100242.16;7364700;19;20022;-58
2022/09/26 08:41:18;;;;;;;0.00;0.00;;;;;;;15.53;62.70;100242.84;7365324;19;20014;-59
2022/09/26 08:44:28;;;;;;;0.00;0.00;;;;;;;15.85;63.16;100250.91;7265273;19;2004205;-58
2022/09/26 08:47:03;;;;;;;0.00;0.00;;;;;;;15.98;60.66;100252.00;7261106;19;2004305;-58
2022/09/26 08:49:49;;;;;;;0.00;0.00;;;;;;;16.21;61.96;100259.53;7365490;19;20010;-58
2022/09/26 08:52:29;;;;;;;0.00;0.00;;;;;;;16.39;61.38;100254.22;7366208;19;20007;-57
2022/09/26 08:54:58;;;;;;;0.00;0.00;;;;;;;16.49;58.77;100258.91;7366523;19;20010;-59
2022/09/26 08:57:23;;;;;;;0.00;0.00;;;;;;;16.65;58.49;100256.28;7368276;19;20026;-57
2022/09/26 08:59:50;;;;;;;0.00;0.00;;;;;;;16.80;58.35;100252.81;7368986;19;20010;-58
2022/09/26 09:02:25;;;;;;;0.10;0.10;;;;;;;17.05;57.23;100254.09;7368052;19;20707;-59
2022/09/26 09:05:00;;;;;;;0.00;0.00;;;;;;;17.35;59.12;100264.69;7368029;19;20007;-56
2022/09/26 09:07:26;;;;;;;0.00;0.00;;;;;;;17.48;57.17;100254.25;7368773;19;20098;-58
2022/09/26 09:09:56;;;;;;;0.08;0.08;;;;;;;17.70;56.99;100270.56;7367928;19;20082;-59
2022/09/26 09:12:46;;;;;;;0.05;0.05;;;;;;;17.98;59.16;100268.94;7367364;19;20002;-57
2022/09/26 09:15:39;;;;;;;0.00;0.00;;;;;;;18.22;57.99;100267.44;7361559;19;20018;-59
2022/09/26 09:18:29;;;;;;;0.00;0.00;;;;;;;18.50;58.77;100271.00;7267420;19;2004438;-57
2022/09/26 09:21:12;;;;;;;0.00;0.00;;;;;;;18.72;58.74;100266.13;7264130;19;2004553;-58
2022/09/26 09:24:22;;;;;;;0.00;0.00;;;;;;;18.97;58.15;100275.13;7365656;19;20054;-59
2022/09/26 09:27:41;;;;;;;0.00;0.00;;;;;;;19.17;57.78;100269.41;7260182;19;2004331;-59
2022/09/26 09:30:42;;;;;;;0.03;0.03;;;;;;;19.30;56.87;100280.88;7256003;19;2004553;-58
2022/09/26 09:33:20;;;;;;;0.00;0.00;;;;;;;19.32;54.73;100276.34;7265899;19;2004282;-58
2022/09/26 09:36:24;;;;;;;0.00;0.00;;;;;;;19.34;54.79;100285.00;7366514;19;20011;-58
2022/09/26 09:38:53;;;;;;;0.00;0.00;;;;;;;19.30;51.22;100288.81;7263688;19;2004511;-59
2022/09/26 09:41:49;;;;;;;0.00;0.00;;;;;;;19.39;55.48;100293.50;7366844;19;22529;-59
2022/09/26 09:44:42;;;;;;;0.10;0.10;;;;;;;19.43;53.11;100289.72;7265889;19;2004465;-58
2022/09/26 09:47:13;;;;;;;0.00;0.00;;;;;;;19.52;51.76;100292.72;7261788;19;2005610;-58
2022/09/26 09:49:39;;;;;;;0.00;0.00;;;;;;;19.63;51.36;100284.94;7366191;19;20014;-59
2022/09/26 09:52:30;;;;;;;0.00;0.00;;;;;;;19.88;53.00;100294.72;7366298;19;20034;-56
2022/09/26 09:54:55;;;;;;;0.10;0.10;;;;;;;20.03;50.41;100284.88;7367212;19;20564;-58
2022/09/26 09:57:35;;;;;;;0.00;0.00;;;;;;;20.33;53.53;100280.09;7359388;19;20169;-59
2022/09/26 10:00:17;;;;;;;0.00;0.00;;;;;;;20.57;52.53;100272.22;7364472;19;20069;-57
2022/09/26 10:02:48;;;;;;;0.00;0.00;;;;;;;20.76;49.87;100282.38;7367568;19;20011;-59
2022/09/26 10:05:32;;;;;;;0.10;0.10;;;;;;;21.03;52.54;100278.69;7363380;19;20014;-58
2022/09/26 10:07:58;;;;;;;0.05;0.05;;;;;;;21.08;47.92;100277.38;7364578;19;20007;-58
2022/09/26 10:10:39;;;;;;;0.10;0.10;;;;;;;21.37;49.93;100272.63;7365236;19;20090;-58
2022/09/26 10:13:05;;;;;;;0.00;0.00;;;;;;;21.45;46.41;100275.56;7365603;19;20475;-58
2022/09/26 10:15:31;;;;;;;0.10;0.10;;;;;;;21.54;45.73;100266.03;7364743;19;20469;-58
2022/09/26 10:18:15;;;;;;;0.00;0.00;;;;;;;21.86;48.92;100268.91;7365957;19;20542;-59
2022/09/26 10:20:52;;;;;;;0.10;0.10;;;;;;;22.03;46.60;100257.81;7362966;19;20082;-59
2022/09/26 10:23:31;;;;;;;0.10;0.10;;;;;;;22.21;46.71;100268.03;7365581;19;20245;-59
2022/09/26 10:26:06;;;;;;;0.00;0.00;;;;;;;22.43;47.56;100272.50;7360110;19;20508;-60
2022/09/26 10:28:36;;;;;;;0.00;0.00;;;;;;;22.53;44.60;100268.16;7364775;19;20010;-58
2022/09/26 10:31:06;;;;;;;0.10;0.10;;;;;;;22.65;44.09;100276.97;7362666;19;20006;-59
2022/09/26 10:33:34;;;;;;;0.00;0.00;;;;;;;22.66;43.15;100278.69;7361853;19;20709;-58
2022/09/26 10:36:07;;;;;;;0.03;0.03;;;;;;;22.72;43.69;100270.19;7361835;19;20023;-58
2022/09/26 10:40:43;;;;;;;0.08;0.08;;;;;;;22.67;43.28;100265.25;7364240;19;20010;-58
2022/09/26 10:41:24;;;;;;;0.00;0.00;;;;;;;22.76;43.63;100269.00;7360989;19;20082;-57
2022/09/26 10:43:53;;;;;;;0.10;0.10;;;;;;;22.76;42.66;100274.31;7363014;19;20014;-59
2022/09/26 10:46:21;;;;;;;0.10;0.10;;;;;;;22.62;41.95;100271.91;7364097;19;20740;-58
2022/09/26 10:48:50;;;;;;;0.10;0.10;;;;;;;22.47;42.33;100279.28;7364092;19;20022;-55
2022/09/26 10:51:24;;;;;;;0.00;0.00;;;;;;;22.32;43.44;100284.00;7362517;19;20044;-59
2022/09/26 10:53:53;;;;;;;0.10;0.10;;;;;;;22.24;43.49;100289.06;7365826;19;20363;-59
2022/09/26 10:56:28;;;;;;;0.10;0.10;;;;;;;22.27;44.39;100289.69;7364548;19;20088;-58
2022/09/26 10:59:00;;;;;;;0.00;0.00;;;;;;;22.27;43.97;100283.50;7361653;19;20057;-57
2022/09/26 11:01:30;;;;;;;0.00;0.00;;;;;;;22.20;42.54;100267.19;7363588;19;20011;-57
2022/09/26 11:04:09;;;;;;;0.00;0.00;;;;;;;22.30;42.86;100282.41;7362986;19;20010;-58
2022/09/26 11:06:39;;;;;;;0.00;0.00;;;;;;;22.24;42.93;100281.94;7365355;19;20014;-57
2022/09/26 11:09:06;;;;;;;0.00;0.00;;;;;;;22.08;42.25;100268.09;7361623;19;20025;-58
2022/09/26 11:11:35;;;;;;;0.10;0.10;;;;;;;22.03;42.65;100280.91;7363551;19;20094;-58
2022/09/26 11:14:04;;;;;;;0.10;0.10;;;;;;;21.96;42.88;100291.19;7365191;19;20458;-59
2022/09/26 11:16:37;;;;;;;0.00;0.00;;;;;;;21.86;43.82;100279.56;7364573;19;20017;-59
2022/09/26 11:19:49;;;;;;;0.00;0.00;;;;;;;21.73;44.76;100284.09;7363280;19;20612;-58
2022/09/26 11:22:36;;;;;;;0.00;0.00;;;;;;;21.55;44.32;100265.09;7261873;19;2004388;-58
2022/09/26 11:25:13;;;;;;;0.10;0.10;;;;;;;21.39;43.50;100268.06;7363030;19;20014;-59
2022/09/26 11:27:47;;;;;;;0.05;0.05;;;;;;;21.36;45.54;100248.84;7363200;19;20017;-59
2022/09/26 11:30:18;;;;;;;0.10;0.10;;;;;;;21.53;44.56;100260.84;7363780;19;20105;-58
2022/09/26 11:32:47;;;;;;;0.10;0.10;;;;;;;21.76;45.19;100257.31;7364776;19;20018;-58
2022/09/26 11:35:28;;;;;;;0.10;0.10;;;;;;;22.13;46.82;100252.66;7364072;19;20035;-59
2022/09/26 11:38:04;;;;;;;0.10;0.10;;;;;;;22.48;45.09;100244.56;7364043;19;20015;-58
2022/09/26 11:40:38;;;;;;;0.10;0.10;;;;;;;22.75;43.25;100245.97;7362085;19;20015;-58
2022/09/26 11:43:12;;;;;;;0.10;0.10;;;;;;;23.05;43.20;100259.50;7365031;19;20491;-59
2022/09/26 11:45:59;;;;;;;0.10;0.10;;;;;;;23.51;44.77;100258.34;7363823;19;20010;-58
2022/09/26 11:48:43;;;;;;;0.03;0.03;;;;;;;23.80;43.31;100255.91;7363003;19;20010;-59
2022/09/26 11:51:15;;;;;;;0.00;0.00;;;;;;;23.97;41.75;100259.81;7358709;19;20010;-59
2022/09/26 11:53:52;;;;;;;0.10;0.10;;;;;;;24.05;41.26;100257.34;7362698;19;20021;-57